sensor_id;sensor_type;location;lat;lon;timestamp;pressure;altitude;pressure_sealevel;temperature;humidity
53699;BME280;39591;53.952;27.612;2023-01-08T00:00:06;1022.1;;;-8.6;63.2
53699;BME280;39591;53.952;27.612;2023-01-08T00:04:54;1022;;;-8.7;63.4
53699;BME280;39591;53.952;27.612;2023-01-08T00:09:52;1021.9;;;-8.7;63.6
53699;BME280;39591;53.952;27.612;2023-01-08T00:14:56;1021.9;;;-8.7;63.5
53699;BME280;39591;53.952;27.612;2023-01-08T00:20:06;1021.9;;;-8.7;63.7
53699;BME280;39591;53.952;27.612;2023-01-08T00:25:16;1022;;;-8.6;63.5
53699;BME280;39591;53.952;27.612;2023-01-08T00:30:14;1022;;;-8.6;63.5
53699;BME280;39591;53.952;27.612;2023-01-08T00:34:54;1022;;;-8.6;63.5
53699;BME280;39591;53.952;27.612;2023-01-08T00:39:34;1022;;;-8.5;63.2
53699;BME280;39591;53.952;27.612;2023-01-08T00:45:14;1022;;;-8.5;63.1
53699;BME280;39591;53.952;27.612;2023-01-08T00:50:06;1022;;;-8.5;63.1
53699;BME280;39591;53.952;27.612;2023-01-08T00:54:54;1022;;;-8.4;63.1
53699;BME280;39591;53.952;27.612;2023-01-08T01:00:05;1021.9;;;-8.4;63
53699;BME280;39591;53.952;27.612;2023-01-08T01:05:06;1021.9;;;-8.4;63.1
53699;BME280;39591;53.952;27.612;2023-01-08T01:10:14;1021.9;;;-8.3;63.1
53699;BME280;39591;53.952;27.612;2023-01-08T01:14:34;1021.9;;;-8.3;63.1
53699;BME280;39591;53.952;27.612;2023-01-08T01:19:52;1021.9;;;-8.2;63
53699;BME280;39591;53.952;27.612;2023-01-08T01:24:52;1021.9;;;-8.2;62.8
53699;BME280;39591;53.952;27.612;2023-01-08T01:29:42;1021.8;;;-8.2;62.9
53699;BME280;39591;53.952;27.612;2023-01-08T01:35:14;1021.7;;;-8.1;63.1
53699;BME280;39591;53.952;27.612;2023-01-08T01:39:50;1021.7;;;-8.1;63.1
53699;BME280;39591;53.952;27.612;2023-01-08T01:44:42;1021.7;;;-8.1;63.1
53699;BME280;39591;53.952;27.612;2023-01-08T01:50:06;1021.7;;;-8;63
53699;BME280;39591;53.952;27.612;2023-01-08T01:55:04;1021.6;;;-8;63.2
53699;BME280;39591;53.952;27.612;2023-01-08T02:00:07;1021.5;;;-8;63.1
53699;BME280;39591;53.952;27.612;2023-01-08T02:04:42;1021.4;;;-8;63
53699;BME280;39591;53.952;27.612;2023-01-08T02:09:37;1021.4;;;-8;63.2
53699;BME280;39591;53.952;27.612;2023-01-08T02:14:58;1021.3;;;-8;63.1
53699;BME280;39591;53.952;27.612;2023-01-08T02:19:35;1021.3;;;-8;63.2
53699;BME280;39591;53.952;27.612;2023-01-08T02:25:20;1021.3;;;-7.9;63.2
53699;BME280;39591;53.952;27.612;2023-01-08T02:29:34;1021.3;;;-7.9;63.2
53699;BME280;39591;53.952;27.612;2023-01-08T02:34:34;1021.4;;;-7.8;63.1
53699;BME280;39591;53.952;27.612;2023-01-08T02:39:55;1021.4;;;-7.8;63.1
53699;BME280;39591;53.952;27.612;2023-01-08T02:45:08;1021.3;;;-7.7;63
53699;BME280;39591;53.952;27.612;2023-01-08T02:50:19;1021.3;;;-7.7;63.2
53699;BME280;39591;53.952;27.612;2023-01-08T02:54:34;1021.3;;;-7.7;63.2
53699;BME280;39591;53.952;27.612;2023-01-08T02:59:56;1021.2;;;-7.6;63.4
53699;BME280;39591;53.952;27.612;2023-01-08T03:04:45;1021.2;;;-7.6;63.2
53699;BME280;39591;53.952;27.612;2023-01-08T03:09:46;1021.1;;;-7.6;63.1
53699;BME280;39591;53.952;27.612;2023-01-08T03:15:18;1021.1;;;-7.6;63.3
53699;BME280;39591;53.952;27.612;2023-01-08T03:19:55;1021.1;;;-7.6;63.3
53699;BME280;39591;53.952;27.612;2023-01-08T03:24:52;1021.1;;;-7.6;63.2
53699;BME280;39591;53.952;27.612;2023-01-08T03:30:08;1021.1;;;-7.6;63.2
53699;BME280;39591;53.952;27.612;2023-01-08T03:35:08;1021.2;;;-7.6;63.4
53699;BME280;39591;53.952;27.612;2023-01-08T03:40:19;1021;;;-7.6;64.4
53699;BME280;39591;53.952;27.612;2023-01-08T03:44:46;1021;;;-7.6;64.4
53699;BME280;39591;53.952;27.612;2023-01-08T03:49:59;1021;;;-7.5;64.3
53699;BME280;39591;53.952;27.612;2023-01-08T03:54:56;1020.9;;;-7.5;63.9
53699;BME280;39591;53.952;27.612;2023-01-08T03:59:34;1020.9;;;-7.5;63.8
53699;BME280;39591;53.952;27.612;2023-01-08T04:05:18;1020.8;;;-7.4;63.6
53699;BME280;39591;53.952;27.612;2023-01-08T04:09:56;1020.8;;;-7.4;63.6
53699;BME280;39591;53.952;27.612;2023-01-08T04:14:46;1020.8;;;-7.5;63.8
53699;BME280;39591;53.952;27.612;2023-01-08T04:20:00;1020.9;;;-7.4;63.8
53699;BME280;39591;53.952;27.612;2023-01-08T04:25:10;1020.8;;;-7.4;63.8
53699;BME280;39591;53.952;27.612;2023-01-08T04:30:18;1020.8;;;-7.4;64
53699;BME280;39591;53.952;27.612;2023-01-08T04:34:34;1020.8;;;-7.4;64
53699;BME280;39591;53.952;27.612;2023-01-08T04:39:54;1020.8;;;-7.4;64.2
53699;BME280;39591;53.952;27.612;2023-01-08T04:44:58;1020.8;;;-7.3;64.2
53699;BME280;39591;53.952;27.612;2023-01-08T04:49:34;1020.9;;;-7.3;64.1
53699;BME280;39591;53.952;27.612;2023-01-08T04:55:18;1020.8;;;-7.2;64
53699;BME280;39591;53.952;27.612;2023-01-08T04:59:34;1020.8;;;-7.2;64
53699;BME280;39591;53.952;27.612;2023-01-08T05:04:58;1020.8;;;-7.2;64.2
53699;BME280;39591;53.952;27.612;2023-01-08T05:10:08;1020.7;;;-7.1;64.3
53699;BME280;39591;53.952;27.612;2023-01-08T05:15:08;1020.7;;;-7.1;64.3
53699;BME280;39591;53.952;27.612;2023-01-08T05:20:18;1020.6;;;-7;64.2
53699;BME280;39591;53.952;27.612;2023-01-08T05:24:34;1020.6;;;-7;64.2
53699;BME280;39591;53.952;27.612;2023-01-08T05:30:20;1020.6;;;-7;64.3
53699;BME280;39591;53.952;27.612;2023-01-08T05:34:44;1020.6;;;-7;64.3
53699;BME280;39591;53.952;27.612;2023-01-08T05:39:34;1020.6;;;-6.9;64.3
53699;BME280;39591;53.952;27.612;2023-01-08T05:45:16;1020.6;;;-7;64.3
53699;BME280;39591;53.952;27.612;2023-01-08T05:49:54;1020.6;;;-7;64.3
53699;BME280;39591;53.952;27.612;2023-01-08T05:54:44;1020.6;;;-7;64.5
53699;BME280;39591;53.952;27.612;2023-01-08T06:00:08;1020.5;;;-7.1;64.6
53699;BME280;39591;53.952;27.612;2023-01-08T06:04:46;1020.6;;;-7;64.8
53699;BME280;39591;53.952;27.612;2023-01-08T06:10:16;1020.5;;;-7;64.9
53699;BME280;39591;53.952;27.612;2023-01-08T06:15:06;1020.5;;;-7;64.9
53699;BME280;39591;53.952;27.612;2023-01-08T06:20:08;1020.5;;;-6.9;64.8
53699;BME280;39591;53.952;27.612;2023-01-08T06:24:56;1020.5;;;-6.9;64.8
53699;BME280;39591;53.952;27.612;2023-01-08T06:29:42;1020.6;;;-6.8;64.7
53699;BME280;39591;53.952;27.612;2023-01-08T06:35:18;1020.7;;;-6.8;64.9
53699;BME280;39591;53.952;27.612;2023-01-08T06:39:40;1020.7;;;-6.8;64.9
53699;BME280;39591;53.952;27.612;2023-01-08T06:44:56;1020.7;;;-6.7;64.8
53699;BME280;39591;53.952;27.612;2023-01-08T06:50:08;1020.7;;;-6.7;64.7
53699;BME280;39591;53.952;27.612;2023-01-08T06:55:08;1020.8;;;-6.7;64.7
53699;BME280;39591;53.952;27.612;2023-01-08T07:00:20;1020.8;;;-6.6;64.8
53699;BME280;39591;53.952;27.612;2023-01-08T07:04:44;1020.8;;;-6.6;64.8
53699;BME280;39591;53.952;27.612;2023-01-08T07:10:18;1020.9;;;-6.5;64.5
53699;BME280;39591;53.952;27.612;2023-01-08T07:14:58;1020.9;;;-6.5;64.5
53699;BME280;39591;53.952;27.612;2023-01-08T07:19:58;1020.8;;;-6.4;64.4
53699;BME280;39591;53.952;27.612;2023-01-08T07:25:06;1020.9;;;-6.4;64.3
53699;BME280;39591;53.952;27.612;2023-01-08T07:29:42;1020.9;;;-6.3;64.3
53699;BME280;39591;53.952;27.612;2023-01-08T07:34:44;1020.8;;;-6.3;64.3
53699;BME280;39591;53.952;27.612;2023-01-08T07:40:08;1020.7;;;-6.2;64.1
53699;BME280;39591;53.952;27.612;2023-01-08T07:45:10;1020.6;;;-6;63.5
53699;BME280;39591;53.952;27.612;2023-01-08T07:50:20;1020.6;;;-5.7;62.7
53699;BME280;39591;53.952;27.612;2023-01-08T07:54:34;1020.6;;;-5.7;62.7
53699;BME280;39591;53.952;27.612;2023-01-08T08:00:10;1020.7;;;-5.5;62.4
53699;BME280;39591;53.952;27.612;2023-01-08T08:04:56;1020.7;;;-5.5;62.7
53699;BME280;39591;53.952;27.612;2023-01-08T08:09:46;1020.7;;;-5.4;62.1
53699;BME280;39591;53.952;27.612;2023-01-08T08:15:20;1020.8;;;-5.3;61.9
53699;BME280;39591;53.952;27.612;2023-01-08T08:19:56;1020.8;;;-5.3;61.9
53699;BME280;39591;53.952;27.612;2023-01-08T08:24:34;1020.8;;;-5.2;61.7
53699;BME280;39591;53.952;27.612;2023-01-08T08:29:58;1020.7;;;-5.1;61.2
53699;BME280;39591;53.952;27.612;2023-01-08T08:35:08;1020.7;;;-5.1;62.3
53699;BME280;39591;53.952;27.612;2023-01-08T08:40:18;1020.6;;;-5;61.6
53699;BME280;39591;53.952;27.612;2023-01-08T08:44:34;1020.6;;;-5;61.6
53699;BME280;39591;53.952;27.612;2023-01-08T08:50:08;1020.6;;;-5;61.4
53699;BME280;39591;53.952;27.612;2023-01-08T08:54:40;1020.6;;;-4.9;61.4
53699;BME280;39591;53.952;27.612;2023-01-08T08:59:42;1020.6;;;-4.7;61.1
53699;BME280;39591;53.952;27.612;2023-01-08T09:05:18;1020.5;;;-4.6;61
53699;BME280;39591;53.952;27.612;2023-01-08T09:09:54;1020.5;;;-4.6;61
53699;BME280;39591;53.952;27.612;2023-01-08T09:14:46;1020.5;;;-4.6;60.9
53699;BME280;39591;53.952;27.612;2023-01-08T09:20:08;1020.4;;;-4.5;61
53699;BME280;39591;53.952;27.612;2023-01-08T09:25:10;1020.3;;;-4.3;61
53699;BME280;39591;53.952;27.612;2023-01-08T09:30:18;1020.2;;;-4.1;61.2
53699;BME280;39591;53.952;27.612;2023-01-08T09:34:46;1020.2;;;-4.1;61.2
53699;BME280;39591;53.952;27.612;2023-01-08T09:40:09;1020.2;;;-4.1;61.1
53699;BME280;39591;53.952;27.612;2023-01-08T09:44:58;1020.1;;;-4;61.2
53699;BME280;39591;53.952;27.612;2023-01-08T09:49:46;1020;;;-3.9;61.3
53699;BME280;39591;53.952;27.612;2023-01-08T09:55:16;1019.8;;;-3.9;61.3
53699;BME280;39591;53.952;27.612;2023-01-08T09:59:54;1019.8;;;-3.9;61.3
53699;BME280;39591;53.952;27.612;2023-01-08T10:05:18;1019.8;;;-3.8;61.9
53699;BME280;39591;53.952;27.612;2023-01-08T10:09:44;1019.8;;;-3.8;61.9
53699;BME280;39591;53.952;27.612;2023-01-08T10:15:07;1019.8;;;-3.9;62.1
53699;BME280;39591;53.952;27.612;2023-01-08T10:19:56;1019.8;;;-3.9;62.5
53699;BME280;39591;53.952;27.612;2023-01-08T10:25:05;1019.8;;;-3.9;62.8
53699;BME280;39591;53.952;27.612;2023-01-08T10:30:19;1019.8;;;-3.9;63.3
53699;BME280;39591;53.952;27.612;2023-01-08T10:35:06;1019.8;;;-3.9;63.3
53699;BME280;39591;53.952;27.612;2023-01-08T10:39:34;1019.7;;;-3.9;63.5
53699;BME280;39591;53.952;27.612;2023-01-08T10:44:55;1019.7;;;-4;64
53699;BME280;39591;53.952;27.612;2023-01-08T10:49:35;1019.6;;;-4.2;64.8
53699;BME280;39591;53.952;27.612;2023-01-08T10:55:20;1019.4;;;-4.1;65.3
53699;BME280;39591;53.952;27.612;2023-01-08T10:59:46;1019.4;;;-4.1;65.3
53699;BME280;39591;53.952;27.612;2023-01-08T11:05:04;1019.3;;;-4.1;65.5
53699;BME280;39591;53.952;27.612;2023-01-08T11:10:19;1019.3;;;-4.1;66.3
53699;BME280;39591;53.952;27.612;2023-01-08T11:14:54;1019.3;;;-4.1;66.3
53699;BME280;39591;53.952;27.612;2023-01-08T11:20:18;1019.1;;;-4;66
53699;BME280;39591;53.952;27.612;2023-01-08T11:25:10;1019.1;;;-4;66
53699;BME280;39591;53.952;27.612;2023-01-08T11:30:10;1019.1;;;-4;66.4
53699;BME280;39591;53.952;27.612;2023-01-08T11:35:00;1019;;;-4.1;66.8
53699;BME280;39591;53.952;27.612;2023-01-08T11:39:34;1018.9;;;-4;66.9
53699;BME280;39591;53.952;27.612;2023-01-08T11:45:16;1019;;;-3.9;66.7
53699;BME280;39591;53.952;27.612;2023-01-08T11:50:10;1019;;;-3.9;66.7
53699;BME280;39591;53.952;27.612;2023-01-08T11:55:13;1018.9;;;-4;66.7
53699;BME280;39591;53.952;27.612;2023-01-08T11:59:45;1018.9;;;-3.9;66.7
53699;BME280;39591;53.952;27.612;2023-01-08T12:04:39;1018.9;;;-3.9;66.7
53699;BME280;39591;53.952;27.612;2023-01-08T12:10:19;1018.7;;;-3.8;66.6
53699;BME280;39591;53.952;27.612;2023-01-08T12:15:09;1018.7;;;-3.8;66.6
53699;BME280;39591;53.952;27.612;2023-01-08T12:19:53;1018.7;;;-3.8;66.5
53699;BME280;39591;53.952;27.612;2023-01-08T12:25:02;1018.7;;;-3.8;66.7
53699;BME280;39591;53.952;27.612;2023-01-08T12:30:10;1018.7;;;-3.8;67
53699;BME280;39591;53.952;27.612;2023-01-08T12:35:19;1018.7;;;-3.9;67.2
53699;BME280;39591;53.952;27.612;2023-01-08T12:39:44;1018.7;;;-3.9;67.2
53699;BME280;39591;53.952;27.612;2023-01-08T12:45:13;1018.6;;;-3.9;67.2
53699;BME280;39591;53.952;27.612;2023-01-08T12:49:59;1018.6;;;-3.9;67.2
53699;BME280;39591;53.952;27.612;2023-01-08T12:54:38;1018.6;;;-4;67.7
53699;BME280;39591;53.952;27.612;2023-01-08T13:00:21;1018.7;;;-4;68
53699;BME280;39591;53.952;27.612;2023-01-08T13:05:11;1018.7;;;-4;68
53699;BME280;39591;53.952;27.612;2023-01-08T13:09:34;1018.7;;;-4.1;68.1
53699;BME280;39591;53.952;27.612;2023-01-08T13:14:39;1018.7;;;-4.2;68.2
53699;BME280;39591;53.952;27.612;2023-01-08T13:19:49;1018.7;;;-4.2;68.4
53699;BME280;39591;53.952;27.612;2023-01-08T13:25:31;1018.8;;;-4.2;68.5
53699;BME280;39591;53.952;27.612;2023-01-08T13:29:35;1018.8;;;-4.1;68.5
53699;BME280;39591;53.952;27.612;2023-01-08T13:35:17;1018.8;;;-4.1;68.1
53699;BME280;39591;53.952;27.612;2023-01-08T13:40:17;1018.8;;;-4.2;68.2
53699;BME280;39591;53.952;27.612;2023-01-08T13:44:35;1018.8;;;-4.2;68.2
53699;BME280;39591;53.952;27.612;2023-01-08T13:50:04;1018.8;;;-4.3;68.1
53699;BME280;39591;53.952;27.612;2023-01-08T13:55:13;1018.7;;;-4.5;68.5
53699;BME280;39591;53.952;27.612;2023-01-08T14:00:17;1018.9;;;-4.5;69.1
53699;BME280;39591;53.952;27.612;2023-01-08T14:04:56;1018.9;;;-4.5;69.1
53699;BME280;39591;53.952;27.612;2023-01-08T14:09:46;1018.9;;;-4.5;69
53699;BME280;39591;53.952;27.612;2023-01-08T14:15:02;1018.9;;;-4.5;69.1
53699;BME280;39591;53.952;27.612;2023-01-08T14:19:48;1018.9;;;-4.4;69.1
53699;BME280;39591;53.952;27.612;2023-01-08T14:25:06;1019;;;-4.4;68.9
53699;BME280;39591;53.952;27.612;2023-01-08T14:30:16;1018.9;;;-4.4;68.8
53699;BME280;39591;53.952;27.612;2023-01-08T14:34:34;1018.9;;;-4.4;68.8
53699;BME280;39591;53.952;27.612;2023-01-08T14:40:26;1018.8;;;-4.3;68.6
53699;BME280;39591;53.952;27.612;2023-01-08T14:45:12;1018.8;;;-4.3;68.6
53699;BME280;39591;53.952;27.612;2023-01-08T14:50:17;1018.6;;;-4.4;68.5
53699;BME280;39591;53.952;27.612;2023-01-08T14:55:16;1018.5;;;-4.4;68.8
53699;BME280;39591;53.952;27.612;2023-01-08T14:59:58;1018.5;;;-4.4;68.8
53699;BME280;39591;53.952;27.612;2023-01-08T15:05:19;1018.5;;;-4.4;68.7
53699;BME280;39591;53.952;27.612;2023-01-08T15:09:54;1018.5;;;-4.4;68.7
53699;BME280;39591;53.952;27.612;2023-01-08T15:15:07;1018.6;;;-4.4;68.9
53699;BME280;39591;53.952;27.612;2023-01-08T15:20:15;1018.6;;;-4.4;68.8
53699;BME280;39591;53.952;27.612;2023-01-08T15:24:35;1018.6;;;-4.4;68.8
53699;BME280;39591;53.952;27.612;2023-01-08T15:30:23;1018.5;;;-4.3;68.8
53699;BME280;39591;53.952;27.612;2023-01-08T15:35:12;1018.5;;;-4.3;68.8
53699;BME280;39591;53.952;27.612;2023-01-08T15:40:09;1018.5;;;-4.3;68.8
53699;BME280;39591;53.952;27.612;2023-01-08T15:44:59;1018.5;;;-4.3;68.9
53699;BME280;39591;53.952;27.612;2023-01-08T15:49:56;1018.5;;;-4.3;68.9
53699;BME280;39591;53.952;27.612;2023-01-08T15:55:20;1018.4;;;-4.3;68.7
53699;BME280;39591;53.952;27.612;2023-01-08T15:59:34;1018.4;;;-4.3;68.7
53699;BME280;39591;53.952;27.612;2023-01-08T16:04:44;1018.4;;;-4.3;68.7
53699;BME280;39591;53.952;27.612;2023-01-08T16:10:06;1018.3;;;-4.4;68.8
53699;BME280;39591;53.952;27.612;2023-01-08T16:14:54;1018.2;;;-4.5;69.2
53699;BME280;39591;53.952;27.612;2023-01-08T16:20:16;1018.1;;;-4.4;68.9
53699;BME280;39591;53.952;27.612;2023-01-08T16:25:10;1018.1;;;-4.4;68.9
53699;BME280;39591;53.952;27.612;2023-01-08T16:30:18;1018;;;-4.5;69
53699;BME280;39591;53.952;27.612;2023-01-08T16:34:44;1018;;;-4.5;69
53699;BME280;39591;53.952;27.612;2023-01-08T16:39:56;1018;;;-4.5;69.2
53699;BME280;39591;53.952;27.612;2023-01-08T16:45:14;1017.7;;;-4.6;69.2
53699;BME280;39591;53.952;27.612;2023-01-08T16:49:34;1017.7;;;-4.6;69.2
53699;BME280;39591;53.952;27.612;2023-01-08T16:54:59;1017.6;;;-4.6;69.5
53699;BME280;39591;53.952;27.612;2023-01-08T17:00:09;1017.6;;;-4.7;69.5
53699;BME280;39591;53.952;27.612;2023-01-08T17:04:34;1017.8;;;-4.7;69.6
53699;BME280;39591;53.952;27.612;2023-01-08T17:10:14;1017.9;;;-4.7;69.7
53699;BME280;39591;53.952;27.612;2023-01-08T17:14:42;1017.9;;;-4.7;69.7
53699;BME280;39591;53.952;27.612;2023-01-08T17:20:08;1017.9;;;-4.6;69.7
53699;BME280;39591;53.952;27.612;2023-01-08T17:25:09;1017.9;;;-4.6;69.8
53699;BME280;39591;53.952;27.612;2023-01-08T17:29:54;1018;;;-4.6;69.9
53699;BME280;39591;53.952;27.612;2023-01-08T17:35:16;1018;;;-4.6;70
53699;BME280;39591;53.952;27.612;2023-01-08T17:39:34;1018;;;-4.6;70
53699;BME280;39591;53.952;27.612;2023-01-08T17:44:49;1018;;;-4.6;70.3
53699;BME280;39591;53.952;27.612;2023-01-08T17:50:09;1018;;;-4.6;70.4
53699;BME280;39591;53.952;27.612;2023-01-08T17:54:34;1017.9;;;-4.6;70.2
53699;BME280;39591;53.952;27.612;2023-01-08T18:00:18;1017.9;;;-4.5;70.1
53699;BME280;39591;53.952;27.612;2023-01-08T18:05:08;1017.9;;;-4.5;70.1
53699;BME280;39591;53.952;27.612;2023-01-08T18:10:09;1017.8;;;-4.4;70
53699;BME280;39591;53.952;27.612;2023-01-08T18:14:46;1017.8;;;-4.4;70
53699;BME280;39591;53.952;27.612;2023-01-08T18:20:09;1017.8;;;-4.4;69.9
53699;BME280;39591;53.952;27.612;2023-01-08T18:25:18;1017.8;;;-4.3;69.7
53699;BME280;39591;53.952;27.612;2023-01-08T18:29:34;1017.8;;;-4.3;69.7
53699;BME280;39591;53.952;27.612;2023-01-08T18:34:54;1017.8;;;-4.3;69.7
53699;BME280;39591;53.952;27.612;2023-01-08T18:40:07;1017.8;;;-4.3;69.8
53699;BME280;39591;53.952;27.612;2023-01-08T18:44:34;1017.8;;;-4.3;69.9
53699;BME280;39591;53.952;27.612;2023-01-08T18:50:16;1017.9;;;-4.2;70.1
53699;BME280;39591;53.952;27.612;2023-01-08T18:55:10;1017.9;;;-4.2;70.1
53699;BME280;39591;53.952;27.612;2023-01-08T18:59:36;1017.8;;;-4.2;69.8
53699;BME280;39591;53.952;27.612;2023-01-08T19:04:47;1017.8;;;-4.2;69.6
53699;BME280;39591;53.952;27.612;2023-01-08T19:09:56;1017.7;;;-4.1;69.5
53699;BME280;39591;53.952;27.612;2023-01-08T19:15:16;1017.5;;;-4;69.6
53699;BME280;39591;53.952;27.612;2023-01-08T19:19:42;1017.5;;;-4;69.6
53699;BME280;39591;53.952;27.612;2023-01-08T19:24:56;1017.2;;;-4;69.4
53699;BME280;39591;53.952;27.612;2023-01-08T19:30:14;1017.2;;;-4;69.8
53699;BME280;39591;53.952;27.612;2023-01-08T19:34:34;1017.2;;;-4;69.8
53699;BME280;39591;53.952;27.612;2023-01-08T19:40:09;1017;;;-4;69.7
53699;BME280;39591;53.952;27.612;2023-01-08T19:45:08;1017;;;-4.1;69.9
53699;BME280;39591;53.952;27.612;2023-01-08T19:49:46;1016.8;;;-4;69.8
53699;BME280;39591;53.952;27.612;2023-01-08T19:54:34;1016.8;;;-4.1;69.9
53699;BME280;39591;53.952;27.612;2023-01-08T20:00:14;1016.5;;;-4;69.9
53699;BME280;39591;53.952;27.612;2023-01-08T20:05:16;1016.5;;;-4;69.9
53699;BME280;39591;53.952;27.612;2023-01-08T20:09:46;1016.5;;;-4;69.9
53699;BME280;39591;53.952;27.612;2023-01-08T20:14:56;1016.5;;;-4;69.9
53699;BME280;39591;53.952;27.612;2023-01-08T20:20:18;1016.5;;;-4.1;70.3
53699;BME280;39591;53.952;27.612;2023-01-08T20:24:58;1016.5;;;-4.1;70.3
53699;BME280;39591;53.952;27.612;2023-01-08T20:30:08;1016.5;;;-4;70.4
53699;BME280;39591;53.952;27.612;2023-01-08T20:35:08;1016.5;;;-3.9;70.4
53699;BME280;39591;53.952;27.612;2023-01-08T20:39:34;1016.5;;;-3.9;70.5
53699;BME280;39591;53.952;27.612;2023-01-08T20:44:56;1016.4;;;-3.9;70.7
53699;BME280;39591;53.952;27.612;2023-01-08T20:50:14;1016.1;;;-3.9;70.8
53699;BME280;39591;53.952;27.612;2023-01-08T20:55:10;1016.1;;;-3.9;70.8
53699;BME280;39591;53.952;27.612;2023-01-08T21:00:17;1015.8;;;-3.8;70.9
53699;BME280;39591;53.952;27.612;2023-01-08T21:04:56;1015.8;;;-3.8;70.9
53699;BME280;39591;53.952;27.612;2023-01-08T21:10:20;1015.7;;;-3.9;71.1
53699;BME280;39591;53.952;27.612;2023-01-08T21:14:46;1015.7;;;-3.9;71.1
53699;BME280;39591;53.952;27.612;2023-01-08T21:20:10;1015.6;;;-3.9;71.2
53699;BME280;39591;53.952;27.612;2023-01-08T21:25:08;1015.5;;;-3.9;71.3
53699;BME280;39591;53.952;27.612;2023-01-08T21:29:34;1015.6;;;-3.9;71.3
53699;BME280;39591;53.952;27.612;2023-01-08T21:34:46;1015.6;;;-3.8;71.4
53699;BME280;39591;53.952;27.612;2023-01-08T21:40:16;1015.5;;;-3.8;71.5
53699;BME280;39591;53.952;27.612;2023-01-08T21:45:18;1015.5;;;-3.7;71.6
53699;BME280;39591;53.952;27.612;2023-01-08T21:49:46;1015.5;;;-3.7;71.6
53699;BME280;39591;53.952;27.612;2023-01-08T21:55:18;1015.4;;;-3.7;71.8
53699;BME280;39591;53.952;27.612;2023-01-08T22:00:20;1015.4;;;-3.7;71.9
53699;BME280;39591;53.952;27.612;2023-01-08T22:04:34;1015.4;;;-3.7;71.9
53699;BME280;39591;53.952;27.612;2023-01-08T22:10:10;1015.1;;;-3.7;71.8
53699;BME280;39591;53.952;27.612;2023-01-08T22:15:08;1015;;;-3.6;71.9
53699;BME280;39591;53.952;27.612;2023-01-08T22:19:46;1015;;;-3.6;71.9
53699;BME280;39591;53.952;27.612;2023-01-08T22:24:46;1015;;;-3.5;71.8
53699;BME280;39591;53.952;27.612;2023-01-08T22:30:20;1015;;;-3.4;71.7
53699;BME280;39591;53.952;27.612;2023-01-08T22:35:18;1015;;;-3.3;71.5
53699;BME280;39591;53.952;27.612;2023-01-08T22:39:34;1015;;;-3.3;71.5
53699;BME280;39591;53.952;27.612;2023-01-08T22:44:47;1014.9;;;-3.3;71.6
53699;BME280;39591;53.952;27.612;2023-01-08T22:50:18;1014.6;;;-3.3;71.6
53699;BME280;39591;53.952;27.612;2023-01-08T22:54:35;1014.6;;;-3.3;71.6
53699;BME280;39591;53.952;27.612;2023-01-08T23:00:07;1014.7;;;-3.3;71.7
53699;BME280;39591;53.952;27.612;2023-01-08T23:05:06;1014.7;;;-3.2;71.6
53699;BME280;39591;53.952;27.612;2023-01-08T23:09:52;1014.6;;;-3.2;71.5
53699;BME280;39591;53.952;27.612;2023-01-08T23:14:52;1014.6;;;-3.3;71.6
53699;BME280;39591;53.952;27.612;2023-01-08T23:20:15;1014.6;;;-3.2;71.4
53699;BME280;39591;53.952;27.612;2023-01-08T23:25:15;1014.5;;;-3.1;71.1
53699;BME280;39591;53.952;27.612;2023-01-08T23:29:42;1014.5;;;-3.1;71.1
53699;BME280;39591;53.952;27.612;2023-01-08T23:34:42;1014.4;;;-3.1;71.3
53699;BME280;39591;53.952;27.612;2023-01-08T23:40:14;1014.1;;;-3;70.8
53699;BME280;39591;53.952;27.612;2023-01-08T23:44:34;1014.1;;;-3;70.8
53699;BME280;39591;53.952;27.612;2023-01-08T23:50:16;1014;;;-2.9;70.5
53699;BME280;39591;53.952;27.612;2023-01-08T23:55:04;1014;;;-2.9;70.5
53699;BME280;39591;53.952;27.612;2023-01-08T23:59:53;1013.9;;;-2.9;70.3
